createdAt,value
2019-05-23T00:01:21.831Z,87.33
2019-05-23T00:04:09.995Z,87.28
2019-05-23T00:09:46.681Z,86.89
2019-05-23T00:12:34.582Z,87.11
2019-05-23T00:15:25.579Z,86.99
2019-05-23T00:17:52.266Z,87.14
2019-05-23T00:20:22.286Z,86.92
2019-05-23T00:22:50.661Z,87.02
2019-05-23T00:25:19.197Z,87.14
2019-05-23T00:27:46.804Z,87.15
2019-05-23T00:30:41.813Z,87.24
2019-05-23T00:33:10.781Z,87.23
2019-05-23T00:35:37.924Z,87.04
2019-05-23T00:38:42.029Z,87.04
2019-05-23T00:41:08.930Z,87.08
2019-05-23T00:43:35.873Z,87.24
2019-05-23T00:46:03.607Z,87.09
2019-05-23T00:48:30.946Z,87.06
2019-05-23T00:50:59.362Z,86.76
2019-05-23T00:53:27.911Z,86.68
2019-05-23T00:55:55.639Z,86.53
2019-05-23T00:58:22.853Z,86.63
2019-05-23T01:00:50.297Z,86.57
2019-05-23T01:03:18.287Z,86.66
2019-05-23T01:05:44.982Z,86.51
2019-05-23T01:08:11.729Z,86.48
2019-05-23T01:10:38.989Z,86.45
2019-05-23T01:13:08.877Z,86.54
2019-05-23T01:15:37.491Z,86.50
2019-05-23T01:18:24.624Z,86.60
2019-05-23T01:20:57.172Z,86.28
2019-05-23T01:26:54.389Z,86.64
2019-05-23T01:29:23.759Z,86.56
2019-05-23T01:31:52.999Z,86.71
2019-05-23T01:34:57.289Z,86.69
2019-05-23T01:37:24.199Z,86.66
2019-05-23T01:39:51.259Z,86.76
2019-05-23T01:42:28.888Z,86.59
2019-05-23T01:45:17.041Z,86.38
2019-05-23T01:47:47.125Z,86.57
2019-05-23T01:50:16.199Z,86.41
2019-05-23T01:52:52.792Z,86.48
2019-05-23T01:55:57.576Z,86.61
2019-05-23T01:58:24.531Z,86.61
2019-05-23T02:00:51.041Z,86.43
2019-05-23T02:03:25.720Z,86.17
2019-05-23T02:06:11.118Z,86.19
2019-05-23T02:08:38.008Z,86.50
2019-05-23T02:11:05.020Z,86.81
2019-05-23T02:13:38.602Z,86.56
2019-05-23T02:16:20.391Z,86.63
2019-05-23T02:18:48.974Z,86.78
2019-05-23T02:21:17.183Z,86.71
2019-05-23T02:23:53.759Z,86.55
2019-05-23T02:26:41.292Z,86.74
2019-05-23T02:29:09.846Z,86.73
2019-05-23T02:31:36.969Z,87.08
2019-05-23T02:34:09.985Z,87.26
2019-05-23T02:36:52.502Z,87.42
2019-05-23T02:39:19.243Z,87.11
2019-05-23T02:41:50.698Z,87.29
2019-05-23T02:44:27.543Z,87.20
2019-05-23T02:47:24.181Z,87.42
2019-05-23T02:49:52.794Z,87.31
2019-05-23T02:52:43.805Z,87.10
2019-05-23T02:55:22.669Z,87.22
2019-05-23T02:57:51.441Z,87.77
2019-05-23T03:00:54.257Z,87.63
2019-05-23T03:03:25.796Z,87.49
2019-05-23T03:05:52.441Z,87.48
2019-05-23T03:08:20.982Z,87.46
2019-05-23T03:11:15.163Z,87.56
2019-05-23T03:13:43.980Z,87.79
2019-05-23T03:16:22.274Z,87.72
2019-05-23T03:18:55.377Z,87.88
2019-05-23T03:21:24.453Z,87.77
2019-05-23T03:23:52.072Z,87.46
2019-05-23T03:27:33.153Z,87.71
2019-05-23T03:30:00.067Z,87.87
2019-05-23T03:32:38.301Z,87.84
2019-05-23T03:35:11.040Z,87.69
2019-05-23T03:37:39.829Z,87.56
2019-05-23T03:40:07.891Z,87.45
2019-05-23T03:42:34.673Z,87.54
2019-05-23T03:45:03.999Z,87.31
2019-05-23T03:47:31.804Z,87.44
2019-05-23T03:49:59.435Z,87.24
2019-05-23T03:52:26.890Z,86.91
2019-05-23T03:54:53.795Z,87.01
2019-05-23T03:57:25.634Z,87.19
2019-05-23T03:59:51.432Z,87.25
2019-05-23T04:02:20.663Z,87.26
2019-05-23T04:04:48.878Z,87.01
2019-05-23T04:07:15.572Z,87.03
2019-05-23T04:09:42.855Z,87.11
2019-05-23T04:12:09.559Z,86.94
2019-05-23T04:14:36.287Z,86.84
2019-05-23T04:17:03.880Z,86.85
2019-05-23T04:19:30.523Z,86.69
2019-05-23T04:21:57.272Z,86.40
2019-05-23T04:24:24.335Z,86.09
2019-05-23T04:26:50.947Z,86.24
2019-05-23T04:29:17.918Z,86.16
2019-05-23T04:31:44.730Z,86.11
2019-05-23T04:34:11.430Z,86.41
2019-05-23T04:36:38.577Z,86.15
2019-05-23T04:39:06.166Z,86.06
2019-05-23T04:41:32.976Z,86.00
2019-05-23T04:44:00.028Z,85.92
2019-05-23T04:50:03.680Z,86.26
2019-05-23T04:52:50.240Z,86.39
2019-05-23T04:55:17.971Z,86.31
2019-05-23T04:57:46.492Z,86.38
2019-05-23T05:00:18.714Z,86.26
2019-05-23T05:02:46.677Z,86.46
2019-05-23T05:05:14.237Z,86.56
2019-05-23T05:07:41.208Z,86.77
2019-05-23T05:10:12.783Z,86.60
2019-05-23T05:12:40.385Z,86.63
2019-05-23T05:15:08.622Z,86.56
2019-05-23T05:17:35.615Z,86.19
2019-05-23T05:20:04.963Z,86.29
2019-05-23T05:22:31.466Z,86.47
2019-05-23T05:24:58.489Z,86.73
2019-05-23T05:27:26.079Z,86.86
2019-05-23T05:29:52.611Z,86.76
2019-05-23T05:32:19.663Z,86.72
2019-05-23T05:34:46.779Z,86.70
2019-05-23T05:37:13.458Z,86.80
2019-05-23T05:39:40.789Z,86.72
2019-05-23T05:42:08.667Z,86.66
2019-05-23T05:44:36.755Z,86.17
2019-05-23T05:47:04.675Z,86.78
2019-05-23T05:49:31.938Z,86.93
2019-05-23T05:51:58.971Z,86.66
2019-05-23T05:54:25.858Z,86.91
2019-05-23T05:56:52.715Z,86.96
2019-05-23T05:59:19.669Z,86.80
2019-05-23T06:01:47.278Z,87.15
2019-05-23T06:04:14.088Z,87.17
2019-05-23T06:06:42.727Z,87.09
2019-05-23T06:09:11.654Z,86.87
2019-05-23T06:11:46.946Z,86.89
2019-05-23T06:14:28.505Z,87.07
2019-05-23T06:16:56.228Z,86.98
2019-05-23T06:19:23.611Z,86.61
2019-05-23T06:21:58.137Z,86.66
2019-05-23T06:24:46.636Z,86.56
2019-05-23T06:27:08.754Z,86.61
2019-05-23T06:29:35.529Z,86.44
2019-05-23T06:32:52.595Z,86.46
2019-05-23T07:37:45.859Z,85.49
2019-05-23T11:31:09.567Z,89.18
2019-05-23T11:34:01.753Z,88.90
2019-05-23T11:36:36.108Z,88.67
2019-05-23T12:56:39.603Z,88.04
2019-05-23T12:59:10.055Z,87.87
2019-05-23T13:01:38.788Z,87.69
2019-05-23T13:04:09.948Z,87.38
2019-05-23T13:06:34.824Z,87.17
2019-05-23T13:19:59.675Z,85.87
2019-05-23T13:22:27.428Z,85.44
2019-05-23T13:28:29.705Z,86.11
2019-05-23T13:31:12.644Z,86.40
2019-05-23T13:34:28.543Z,86.11
2019-05-23T13:40:58.071Z,85.96
2019-05-23T14:13:47.922Z,85.95
2019-05-23T15:53:43.209Z,84.41
2019-05-23T15:56:28.970Z,84.65
2019-05-23T15:59:05.941Z,84.47
2019-05-23T16:01:55.426Z,84.37
2019-05-23T16:15:59.661Z,84.32
2019-05-23T16:18:26.975Z,84.19
2019-05-23T16:21:48.867Z,84.40
2019-05-23T16:24:16.142Z,84.43
2019-05-23T16:27:05.855Z,84.48
2019-05-23T16:31:47.923Z,84.43
2019-05-23T16:34:14.747Z,84.59
2019-05-23T16:36:41.733Z,84.73
2019-05-23T16:39:18.327Z,84.57
2019-05-23T16:41:45.093Z,84.81
2019-05-23T16:44:11.802Z,84.39
2019-05-23T16:46:38.311Z,84.44
2019-05-23T16:49:05.217Z,84.61
2019-05-23T16:51:31.781Z,84.81
2019-05-23T16:54:07.330Z,84.46
2019-05-23T17:02:56.741Z,84.93
2019-05-23T17:05:25.481Z,84.82
2019-05-23T17:07:54.023Z,84.81
2019-05-23T17:10:22.529Z,85.05
2019-05-23T17:12:51.000Z,84.85
2019-05-23T17:15:22.291Z,84.80
2019-05-23T17:18:02.241Z,84.85
2019-05-23T17:20:23.951Z,84.58
2019-05-23T17:39:08.885Z,84.72
2019-05-23T17:41:36.460Z,85.04
2019-05-23T17:44:03.751Z,85.11
2019-05-23T17:55:36.447Z,84.51
2019-05-23T18:01:05.854Z,83.62
2019-05-23T18:03:33.201Z,83.99
2019-05-23T18:06:02.025Z,83.90
2019-05-23T18:08:30.591Z,84.22
2019-05-23T18:10:57.421Z,84.62
2019-05-23T18:13:24.897Z,84.59
2019-05-23T18:15:51.904Z,84.53
2019-05-23T18:18:18.871Z,84.77
2019-05-23T18:20:45.818Z,85.09
2019-05-23T18:23:13.089Z,84.82
2019-05-23T18:25:41.597Z,84.76
2019-05-23T18:28:11.829Z,84.89
2019-05-23T18:30:49.366Z,85.13
2019-05-23T18:33:18.385Z,85.04
2019-05-23T18:35:45.301Z,85.25
2019-05-23T18:38:12.498Z,85.26
2019-05-23T18:40:39.480Z,85.37
2019-05-23T18:43:06.109Z,85.68
2019-05-23T18:45:34.810Z,85.52
2019-05-23T18:48:01.860Z,85.70
2019-05-23T18:50:30.654Z,85.70
2019-05-23T18:52:58.199Z,85.98
2019-05-23T18:55:25.234Z,86.10
2019-05-23T18:57:52.148Z,86.04
2019-05-23T19:00:46.396Z,86.05
2019-05-23T19:03:13.553Z,86.16
2019-05-23T19:05:40.480Z,86.14
2019-05-23T19:08:07.620Z,86.38
2019-05-23T19:10:34.431Z,86.33
2019-05-23T19:13:01.441Z,86.30
2019-05-23T19:15:28.928Z,86.26
2019-05-23T19:17:56.352Z,86.29
2019-05-23T19:20:23.014Z,86.26
2019-05-23T19:22:50.249Z,86.36
2019-05-23T19:25:18.521Z,86.46
2019-05-23T19:27:45.572Z,86.34
2019-05-23T19:30:14.289Z,86.28
2019-05-23T19:32:42.224Z,86.42
2019-05-23T19:35:11.508Z,86.49
2019-05-23T19:37:39.306Z,86.69
2019-05-23T19:40:07.753Z,86.86
2019-05-23T19:42:35.120Z,86.87
2019-05-23T19:45:04.740Z,87.02
2019-05-23T19:47:32.118Z,86.95
2019-05-23T19:49:58.888Z,87.00
2019-05-23T19:52:26.378Z,86.99
2019-05-23T19:54:52.954Z,87.08
2019-05-23T19:57:19.844Z,87.09
2019-05-23T19:59:46.498Z,87.08
2019-05-23T20:02:19.363Z,87.00
2019-05-23T20:05:05.050Z,86.97
2019-05-23T20:07:32.355Z,86.91
2019-05-23T20:09:59.149Z,87.01
2019-05-23T20:12:26.085Z,86.91
2019-05-23T20:14:52.994Z,87.07
2019-05-23T20:17:20.064Z,86.96
2019-05-23T20:19:50.187Z,87.09
2019-05-23T20:22:15.607Z,87.06
2019-05-23T20:24:42.406Z,87.02
2019-05-23T20:27:09.077Z,86.89
2019-05-23T20:29:36.053Z,87.11
2019-05-23T20:32:04.724Z,87.09
2019-05-23T20:34:31.448Z,87.19
2019-05-23T20:36:58.174Z,87.01
2019-05-23T20:39:25.272Z,87.16
2019-05-23T20:42:09.946Z,87.29
2019-05-23T20:44:25.782Z,87.34
2019-05-23T20:46:52.707Z,87.25
2019-05-23T20:49:20.171Z,87.38
2019-05-23T20:51:46.899Z,87.47
2019-05-23T20:54:13.620Z,87.46
2019-05-23T20:56:40.224Z,87.46
2019-05-23T20:59:07.798Z,87.61
2019-05-23T21:01:36.558Z,87.49
2019-05-23T21:04:05.087Z,87.46
2019-05-23T21:06:33.807Z,87.60
2019-05-23T21:09:00.748Z,87.48
2019-05-23T21:11:27.436Z,87.38
2019-05-23T21:13:54.184Z,87.48
2019-05-23T21:16:20.912Z,87.51
2019-05-23T21:18:50.003Z,87.39
2019-05-23T21:21:16.409Z,87.33
2019-05-23T21:23:43.266Z,87.23
2019-05-23T21:26:10.307Z,87.47
2019-05-23T21:28:37.080Z,87.25
2019-05-23T21:31:05.953Z,87.28
2019-05-23T21:33:32.840Z,87.28
2019-05-23T21:35:59.512Z,87.26
2019-05-23T21:38:26.755Z,87.36
2019-05-23T21:40:53.655Z,87.41
2019-05-23T21:43:20.437Z,87.36
2019-05-23T21:45:47.297Z,87.46
2019-05-23T21:48:14.229Z,87.52
2019-05-23T21:50:41.547Z,87.57
2019-05-23T21:53:08.847Z,87.48
2019-05-23T21:55:43.193Z,87.55
2019-05-23T21:58:12.353Z,87.60
2019-05-23T22:00:59.886Z,87.62
2019-05-23T22:03:28.600Z,87.46
2019-05-23T22:05:56.218Z,87.58
2019-05-23T22:08:22.987Z,87.61
2019-05-23T22:10:49.931Z,87.67
2019-05-23T22:13:19.833Z,87.70
2019-05-23T22:15:45.415Z,87.75
2019-05-23T22:18:12.166Z,87.76
2019-05-23T22:20:38.895Z,87.81
2019-05-23T22:23:06.178Z,87.74
2019-05-23T22:25:33.097Z,87.75
2019-05-23T22:28:00.018Z,87.74
2019-05-23T22:30:26.635Z,87.67
2019-05-23T22:32:53.595Z,87.76
2019-05-23T22:35:21.045Z,87.79
2019-05-23T22:37:48.007Z,87.72
2019-05-23T22:40:15.179Z,87.74
2019-05-23T22:42:42.107Z,87.68
2019-05-23T22:45:10.941Z,87.71
2019-05-23T22:47:37.782Z,87.84
2019-05-23T22:50:05.958Z,87.66
2019-05-23T22:52:32.519Z,87.73
2019-05-23T22:54:58.987Z,87.67
2019-05-23T22:57:26.035Z,87.73
2019-05-23T22:59:54.111Z,87.62
2019-05-23T23:02:21.847Z,87.68
2019-05-23T23:04:48.850Z,87.71
2019-05-23T23:07:15.725Z,87.68
2019-05-23T23:09:42.446Z,87.73
2019-05-23T23:12:09.127Z,87.51
2019-05-23T23:14:36.000Z,87.38
2019-05-23T23:17:02.953Z,87.09
2019-05-23T23:19:29.671Z,87.20
2019-05-23T23:21:56.400Z,87.27
2019-05-23T23:24:23.056Z,87.37
2019-05-23T23:26:49.682Z,87.33
2019-05-23T23:29:16.241Z,87.41
2019-05-23T23:31:42.849Z,87.29
2019-05-23T23:34:09.406Z,87.44
2019-05-23T23:36:36.127Z,87.34
2019-05-23T23:39:05.165Z,87.26
2019-05-23T23:41:31.964Z,87.38
2019-05-23T23:43:59.932Z,87.28
2019-05-23T23:46:45.513Z,87.25
2019-05-23T23:49:30.540Z,87.37
2019-05-23T23:52:15.460Z,87.44
2019-05-23T23:55:00.793Z,87.46
2019-05-23T23:57:46.345Z,87.45
